Time;durP1;ratioP1;P1;durP2;ratioP2;P2;SDS_P1;SDS_P2;PMS_P1;PMS_P2;Temp;Humidity;BMP_temperature;BMP_pressure;BME280_temperature;BME280_humidity;BME280_pressure;Samples;Min_cycle;Max_cycle;Signal;HPM_P1;HPM_P2
2021/05/29 00:00:56;;;;;;;5.63;3.08;;;12.00;94.40;;;;;;4705015;30;20606;-81
2021/05/29 00:03:24;;;;;;;9.52;4.63;;;12.00;94.40;;;;;;4716460;30;20394;-81
2021/05/29 00:05:51;;;;;;;4.35;3.70;;;12.00;94.70;;;;;;4740762;30;20429;-82
2021/05/29 00:08:18;;;;;;;4.25;2.70;;;12.00;94.70;;;;;;4711634;30;20489;-82
2021/05/29 00:10:50;;;;;;;5.82;4.25;;;12.00;94.60;;;;;;4729696;30;20059;-82
2021/05/29 00:13:18;;;;;;;9.48;5.10;;;12.00;94.80;;;;;;4729805;30;20048;-82
2021/05/29 00:15:45;;;;;;;5.25;3.33;;;12.00;94.90;;;;;;4720631;30;20059;-82
2021/05/29 00:18:12;;;;;;;6.63;3.17;;;12.00;94.80;;;;;;4720677;30;20465;-82
2021/05/29 00:20:39;;;;;;;6.88;4.75;;;12.00;94.90;;;;;;4709063;30;20051;-82
2021/05/29 00:23:13;;;;;;;5.65;3.50;;;11.90;95.10;;;;;;4729949;30;20048;-82
2021/05/29 00:25:40;;;;;;;6.55;4.53;;;11.90;95.10;;;;;;4702519;30;20044;-82
2021/05/29 00:28:09;;;;;;;6.38;4.30;;;11.90;95.20;;;;;;4705148;30;20044;-82
2021/05/29 00:30:37;;;;;;;8.48;5.07;;;11.90;95.20;;;;;;4716904;30;20048;-82
2021/05/29 00:33:05;;;;;;;6.90;3.83;;;11.80;95.40;;;;;;4713114;30;20055;-82
2021/05/29 00:35:32;;;;;;;7.70;4.95;;;11.80;95.40;;;;;;4719110;30;20043;-82
2021/05/29 00:37:58;;;;;;;7.32;4.53;;;11.80;95.50;;;;;;4718332;30;20057;-82
2021/05/29 00:40:25;;;;;;;10.35;4.88;;;11.70;95.50;;;;;;4730041;30;20044;-83
2021/05/29 00:42:52;;;;;;;5.90;4.22;;;11.70;95.60;;;;;;4705704;30;20457;-83
2021/05/29 00:45:19;;;;;;;6.07;4.25;;;11.60;95.90;;;;;;4719228;30;20603;-82
2021/05/29 00:47:46;;;;;;;6.43;3.70;;;11.60;95.70;;;;;;4725543;30;20059;-83
2021/05/29 00:50:13;;;;;;;5.03;3.08;;;11.60;95.70;;;;;;4707268;30;20137;-82
2021/05/29 00:52:41;;;;;;;6.85;3.60;;;11.50;95.70;;;;;;4707037;30;20051;-82
2021/05/29 00:55:11;;;;;;;6.35;3.05;;;11.50;95.80;;;;;;4730017;30;20056;-82
2021/05/29 00:57:44;;;;;;;5.75;3.42;;;11.50;95.80;;;;;;4744951;30;20134;-82
2021/05/29 01:00:12;;;;;;;5.90;2.63;;;11.40;95.70;;;;;;4730485;30;20048;-82
2021/05/29 01:02:39;;;;;;;4.68;2.92;;;11.40;95.70;;;;;;4727110;30;20044;-82
2021/05/29 01:05:09;;;;;;;4.90;3.05;;;11.30;95.70;;;;;;4709648;30;20426;-82
2021/05/29 01:07:35;;;;;;;4.10;2.17;;;11.30;95.70;;;;;;4731926;30;20035;-82
2021/05/29 01:10:05;;;;;;;3.35;1.73;;;11.30;95.70;;;;;;4724811;30;20052;-82
2021/05/29 01:12:32;;;;;;;4.20;1.90;;;11.20;95.70;;;;;;4737248;30;20052;-82
2021/05/29 01:14:59;;;;;;;3.83;2.10;;;11.20;95.60;;;;;;4723090;30;20056;-82
2021/05/29 01:17:29;;;;;;;3.78;2.05;;;11.10;95.60;;;;;;4731991;30;20071;-82
2021/05/29 01:19:56;;;;;;;3.60;1.73;;;11.10;95.70;;;;;;4724385;30;20535;-82
2021/05/29 01:23:02;;;;;;;4.00;1.73;;;11.10;95.60;;;;;;4736038;30;20052;-81
2021/05/29 01:25:37;;;;;;;4.32;1.70;;;11.10;95.60;;;;;;4702515;30;20060;-81
2021/05/29 01:28:08;;;;;;;4.82;2.55;;;11.00;95.50;;;;;;4685272;30;20053;-81
2021/05/29 01:30:47;;;;;;;4.38;2.03;;;11.00;95.60;;;;;;4699001;30;20056;-81
2021/05/29 01:33:26;;;;;;;5.15;1.77;;;11.00;95.60;;;;;;4745837;30;20056;-81
2021/05/29 01:35:57;;;;;;;3.33;1.40;;;10.90;95.70;;;;;;4732073;30;20040;-88
2021/05/29 01:38:24;;;;;;;2.25;1.20;;;10.90;95.70;;;;;;4719970;30;20060;-89
2021/05/29 01:40:51;;;;;;;3.47;1.25;;;10.80;95.60;;;;;;4721062;30;20055;-89
2021/05/29 01:43:19;;;;;;;2.72;1.00;;;10.80;95.60;;;;;;4733000;30;20055;-88
2021/05/29 01:45:45;;;;;;;2.63;1.25;;;10.80;95.50;;;;;;4721009;30;21348;-87
2021/05/29 01:48:13;;;;;;;4.18;1.40;;;10.80;95.50;;;;;;4718645;30;20048;-88
2021/05/29 01:50:47;;;;;;;2.30;1.30;;;10.70;95.50;;;;;;4725614;30;20048;-88
2021/05/29 01:53:15;;;;;;;4.10;1.45;;;10.70;95.50;;;;;;4726078;30;20587;-88
2021/05/29 01:55:43;;;;;;;6.07;1.38;;;10.70;95.50;;;;;;4706497;30;20048;-88
2021/05/29 01:58:10;;;;;;;3.55;1.40;;;10.70;95.50;;;;;;4738487;30;20055;-88
2021/05/29 02:00:37;;;;;;;4.15;1.50;;;10.60;95.50;;;;;;4725086;30;20048;-86
2021/05/29 02:03:04;;;;;;;2.30;1.10;;;10.60;95.50;;;;;;4725369;30;20048;-88
2021/05/29 02:05:33;;;;;;;3.13;1.30;;;10.60;95.50;;;;;;4731074;30;20061;-88
2021/05/29 02:08:03;;;;;;;2.28;0.88;;;10.60;95.50;;;;;;4725356;30;20071;-88
2021/05/29 02:10:31;;;;;;;3.47;1.30;;;10.50;95.50;;;;;;4726419;30;20547;-81
2021/05/29 02:13:01;;;;;;;2.63;1.25;;;10.50;95.50;;;;;;4711343;30;20044;-81
2021/05/29 02:15:30;;;;;;;3.22;1.55;;;10.50;95.50;;;;;;4727917;30;20424;-81
2021/05/29 02:17:58;;;;;;;4.97;2.40;;;10.50;95.60;;;;;;4705861;30;20705;-81
2021/05/29 02:20:34;;;;;;;4.72;1.92;;;10.50;95.80;;;;;;4724222;30;20066;-81
2021/05/29 02:23:01;;;;;;;5.10;3.20;;;10.40;95.80;;;;;;4730441;30;20370;-81
2021/05/29 02:25:27;;;;;;;3.25;1.80;;;10.40;95.90;;;;;;4715263;30;20044;-81
2021/05/29 02:27:54;;;;;;;4.28;2.05;;;10.40;95.90;;;;;;4725857;30;20545;-81
2021/05/29 02:30:22;;;;;;;3.95;2.00;;;10.40;95.90;;;;;;4731128;30;20400;-81
2021/05/29 02:32:50;;;;;;;5.50;2.30;;;10.30;96.00;;;;;;4710287;30;20174;-81
2021/05/29 02:35:16;;;;;;;4.70;2.60;;;10.30;96.00;;;;;;4721198;30;20103;-81
2021/05/29 02:37:43;;;;;;;9.15;2.90;;;10.30;96.10;;;;;;4716797;30;20060;-81
2021/05/29 02:40:11;;;;;;;6.57;3.83;;;10.30;96.10;;;;;;4716748;30;20067;-82
2021/05/29 02:42:38;;;;;;;5.57;3.10;;;10.20;96.30;;;;;;4707929;30;20051;-81
2021/05/29 02:45:05;;;;;;;6.70;3.40;;;10.20;96.30;;;;;;4730049;30;20067;-81
2021/05/29 02:47:32;;;;;;;5.30;2.20;;;10.20;96.30;;;;;;4745582;30;20052;-81
2021/05/29 02:49:58;;;;;;;4.88;3.03;;;10.10;96.30;;;;;;4731046;30;20414;-81
2021/05/29 02:52:26;;;;;;;5.25;2.50;;;10.10;96.40;;;;;;4725346;30;20810;-81
2021/05/29 02:54:53;;;;;;;5.00;2.47;;;10.10;96.40;;;;;;4715713;30;20055;-81
2021/05/29 02:57:19;;;;;;;4.75;2.78;;;10.10;96.50;;;;;;4716899;30;20500;-81
2021/05/29 02:59:46;;;;;;;3.67;2.70;;;10.00;96.50;;;;;;4729827;30;20501;-81
2021/05/29 03:02:13;;;;;;;5.57;2.97;;;10.00;96.60;;;;;;4719244;30;20067;-81
2021/05/29 03:04:39;;;;;;;4.65;2.22;;;9.90;96.60;;;;;;4708429;30;20040;-81
2021/05/29 03:07:06;;;;;;;5.00;2.80;;;9.90;96.90;;;;;;4728407;30;20058;-81
2021/05/29 03:09:33;;;;;;;5.43;3.00;;;9.90;96.70;;;;;;4725212;30;20044;-83
2021/05/29 03:12:02;;;;;;;5.38;2.50;;;9.90;96.80;;;;;;4731188;30;20044;-80
2021/05/29 03:14:28;;;;;;;4.90;2.92;;;9.80;96.80;;;;;;4713519;30;20048;-80
2021/05/29 03:16:55;;;;;;;4.47;2.83;;;9.80;96.90;;;;;;4700266;30;20045;-81
2021/05/29 03:19:22;;;;;;;4.35;3.03;;;9.80;96.90;;;;;;4723623;30;20048;-81
2021/05/29 03:21:49;;;;;;;10.07;4.75;;;9.70;97.00;;;;;;4709414;30;20056;-81
2021/05/29 03:24:16;;;;;;;5.50;3.80;;;9.70;97.20;;;;;;4731119;30;20051;-81
2021/05/29 03:26:43;;;;;;;5.57;3.88;;;9.70;97.20;;;;;;4707012;30;20055;-80
2021/05/29 03:29:09;;;;;;;5.10;3.08;;;9.70;97.20;;;;;;4730725;30;20040;-80
2021/05/29 03:31:36;;;;;;;7.18;4.22;;;9.60;97.30;;;;;;4692657;30;20114;-81
2021/05/29 03:34:02;;;;;;;6.47;4.00;;;9.70;97.40;;;;;;4730445;30;20048;-81
2021/05/29 03:36:29;;;;;;;7.78;4.43;;;9.60;97.30;;;;;;4743955;30;20048;-82
2021/05/29 03:38:56;;;;;;;9.52;5.13;;;9.70;97.60;;;;;;4738343;30;20067;-81
2021/05/29 03:41:22;;;;;;;11.25;4.95;;;9.60;97.70;;;;;;4722356;30;20044;-82
2021/05/29 03:43:49;;;;;;;8.75;4.95;;;9.60;97.80;;;;;;4724391;30;20053;-81
2021/05/29 03:46:17;;;;;;;7.38;5.75;;;9.60;97.90;;;;;;4715089;30;20051;-81
2021/05/29 03:48:43;;;;;;;6.88;4.72;;;9.60;98.10;;;;;;4715548;30;20051;-81
2021/05/29 03:51:10;;;;;;;8.60;4.70;;;9.60;98.10;;;;;;4743922;30;20082;-81
2021/05/29 03:53:37;;;;;;;7.85;4.03;;;9.60;98.40;;;;;;4705222;30;20078;-78
2021/05/29 03:56:04;;;;;;;5.90;3.75;;;9.60;98.10;;;;;;4720486;30;20056;-82
2021/05/29 03:58:31;;;;;;;6.70;4.28;;;9.60;98.10;;;;;;4726057;30;20622;-85
2021/05/29 04:00:58;;;;;;;5.75;3.92;;;9.60;98.00;;;;;;4710065;30;20390;-86
2021/05/29 04:03:26;;;;;;;7.82;3.78;;;9.60;98.00;;;;;;4723249;30;20516;-84
2021/05/29 04:05:53;;;;;;;7.78;4.30;;;9.60;98.00;;;;;;4697718;30;20064;-84
2021/05/29 04:08:19;;;;;;;9.13;7.18;;;9.70;98.00;;;;;;4715970;30;20116;-83
2021/05/29 04:10:47;;;;;;;11.18;7.20;;;9.70;97.90;;;;;;4698453;30;20396;-84
2021/05/29 04:13:14;;;;;;;29.48;21.60;;;9.70;97.90;;;;;;4728495;30;20044;-83
2021/05/29 04:15:41;;;;;;;18.35;12.75;;;9.80;97.80;;;;;;4728818;30;20041;-84
2021/05/29 04:18:08;;;;;;;14.43;8.30;;;9.90;97.90;;;;;;4714210;30;20855;-82
2021/05/29 04:20:34;;;;;;;11.63;7.80;;;9.90;97.80;;;;;;4726840;30;20044;-83
2021/05/29 04:23:01;;;;;;;12.68;6.72;;;10.00;98.00;;;;;;4726927;30;20044;-83
2021/05/29 04:25:29;;;;;;;13.93;10.23;;;10.00;98.00;;;;;;4713347;30;20044;-83
2021/05/29 04:27:56;;;;;;;10.98;7.38;;;10.10;98.00;;;;;;4727548;30;20497;-83
2021/05/29 04:30:25;;;;;;;9.63;6.35;;;10.20;97.90;;;;;;4698774;30;21428;-83
2021/05/29 04:32:53;;;;;;;10.63;6.95;;;10.30;97.90;;;;;;4729610;30;20048;-83
2021/05/29 04:35:20;;;;;;;11.13;6.55;;;10.40;97.90;;;;;;4715068;30;20039;-83
2021/05/29 04:37:49;;;;;;;7.50;4.88;;;10.50;98.10;;;;;;4716658;30;20056;-83
2021/05/29 04:40:20;;;;;;;9.13;5.65;;;10.60;97.70;;;;;;4708537;30;20059;-83
2021/05/29 04:42:47;;;;;;;6.70;5.35;;;10.70;97.60;;;;;;4734304;30;20082;-83
2021/05/29 04:45:14;;;;;;;10.77;6.50;;;10.90;97.50;;;;;;4715338;30;20040;-82
2021/05/29 04:47:41;;;;;;;7.35;5.18;;;10.90;97.50;;;;;;4721505;30;20044;-83
2021/05/29 04:50:09;;;;;;;9.75;6.40;;;11.10;97.50;;;;;;4730613;30;20039;-82
2021/05/29 04:52:36;;;;;;;7.80;5.88;;;11.20;97.40;;;;;;4735999;30;20067;-82
2021/05/29 04:55:05;;;;;;;11.50;7.15;;;11.30;97.30;;;;;;4729635;30;20044;-82
2021/05/29 04:57:32;;;;;;;13.75;8.48;;;11.50;97.30;;;;;;4720515;30;20048;-82
2021/05/29 04:59:59;;;;;;;10.70;7.45;;;11.60;97.30;;;;;;4715761;30;20048;-82
2021/05/29 05:02:26;;;;;;;10.27;6.45;;;11.70;97.20;;;;;;4708400;30;20052;-82
2021/05/29 05:04:52;;;;;;;11.43;8.18;;;11.80;97.00;;;;;;4731328;30;20065;-82
2021/05/29 05:07:19;;;;;;;12.07;9.50;;;11.90;96.90;;;;;;4718388;30;20425;-82
2021/05/29 05:09:46;;;;;;;15.43;10.45;;;12.10;96.80;;;;;;4718885;30;20048;-82
2021/05/29 05:12:12;;;;;;;13.05;9.70;;;12.10;96.70;;;;;;4718111;30;20052;-82
2021/05/29 05:14:39;;;;;;;14.60;9.80;;;12.30;96.60;;;;;;4707910;30;20044;-82
2021/05/29 05:17:05;;;;;;;16.27;10.30;;;12.30;96.50;;;;;;4695173;30;20535;-82
2021/05/29 05:19:32;;;;;;;12.32;9.02;;;12.40;96.40;;;;;;4729100;30;20052;-82
2021/05/29 05:21:59;;;;;;;12.20;9.98;;;12.50;96.40;;;;;;4728809;30;20056;-82
2021/05/29 05:24:25;;;;;;;13.40;9.45;;;12.60;96.30;;;;;;4744262;30;20060;-82
2021/05/29 05:26:52;;;;;;;12.60;9.23;;;12.70;96.20;;;;;;4729558;30;20067;-82
2021/05/29 05:29:18;;;;;;;12.27;8.75;;;12.80;96.00;;;;;;4729987;30;20055;-82
2021/05/29 05:31:45;;;;;;;15.70;10.10;;;13.00;95.90;;;;;;4707941;30;20048;-83
2021/05/29 05:34:12;;;;;;;14.68;9.75;;;13.10;95.60;;;;;;4729046;30;20051;-83
2021/05/29 05:36:39;;;;;;;12.30;8.93;;;13.20;95.30;;;;;;4734194;30;20769;-83
2021/05/29 05:39:10;;;;;;;11.65;8.35;;;13.30;95.10;;;;;;4710940;30;20064;-83
2021/05/29 05:41:37;;;;;;;11.05;8.93;;;13.50;95.00;;;;;;4735307;30;20071;-82
2021/05/29 05:44:06;;;;;;;15.02;9.50;;;13.60;94.70;;;;;;4729272;30;20044;-81
2021/05/29 05:46:33;;;;;;;11.25;8.10;;;13.70;94.50;;;;;;4715789;30;20049;-82
2021/05/29 05:49:05;;;;;;;10.27;8.10;;;13.80;94.40;;;;;;4701254;30;20052;-82
2021/05/29 05:51:32;;;;;;;15.82;10.50;;;13.90;94.20;;;;;;4714823;30;20500;-82
2021/05/29 05:53:59;;;;;;;13.95;9.10;;;14.10;94.00;;;;;;4718809;30;20052;-82
2021/05/29 05:56:26;;;;;;;16.15;9.63;;;14.20;93.60;;;;;;4718389;30;20712;-83
2021/05/29 05:58:56;;;;;;;11.77;7.72;;;14.30;93.20;;;;;;4729191;30;20044;-83
2021/05/29 06:01:24;;;;;;;8.95;6.78;;;14.40;92.80;;;;;;4715183;30;20047;-83
2021/05/29 06:03:51;;;;;;;12.32;7.85;;;14.50;92.80;;;;;;4730915;30;20060;-82
2021/05/29 06:06:18;;;;;;;10.95;7.03;;;14.70;92.20;;;;;;4707442;30;20535;-82
2021/05/29 06:08:45;;;;;;;10.32;8.20;;;14.80;91.90;;;;;;4723012;30;20056;-83
2021/05/29 06:11:16;;;;;;;9.38;6.43;;;15.00;91.30;;;;;;4711837;30;20036;-82
2021/05/29 06:21:57;;;;;;;7.63;5.57;;;16.40;88.00;;;;;;4710275;30;20425;-82
2021/05/29 06:24:28;;;;;;;9.40;6.57;;;16.40;86.60;;;;;;4714304;30;20059;-81
2021/05/29 06:26:56;;;;;;;7.45;4.95;;;16.40;84.90;;;;;;4729499;30;20509;-83
2021/05/29 06:29:24;;;;;;;12.00;7.50;;;16.40;85.40;;;;;;4706690;30;20051;-83
2021/05/29 06:31:50;;;;;;;11.50;6.93;;;16.30;85.80;;;;;;4742221;30;20068;-83
2021/05/29 06:34:18;;;;;;;7.25;6.00;;;16.30;84.90;;;;;;4731734;30;20048;-82
2021/05/29 06:36:45;;;;;;;9.52;6.20;;;16.40;85.10;;;;;;4702555;30;20075;-83
2021/05/29 06:39:12;;;;;;;9.65;6.63;;;16.50;85.00;;;;;;4729436;30;20051;-83
2021/05/29 06:41:40;;;;;;;7.70;6.30;;;16.60;84.80;;;;;;4718687;30;20409;-83
2021/05/29 06:44:08;;;;;;;9.55;6.43;;;16.80;83.80;;;;;;4728993;30;20047;-83
2021/05/29 06:46:35;;;;;;;9.20;6.30;;;17.00;83.00;;;;;;4697269;30;20052;-82
2021/05/29 06:49:03;;;;;;;8.60;6.25;;;17.10;82.20;;;;;;4713904;30;20044;-78
2021/05/29 06:51:37;;;;;;;8.23;6.68;;;17.10;82.50;;;;;;4729569;30;20044;-81
2021/05/29 06:54:33;;;;;;;7.90;5.70;;;17.10;82.20;;;;;;4733754;30;20040;-81
2021/05/29 06:59:38;;;;;;;10.52;7.97;;;17.20;82.20;;;;;;4743282;30;21299;-81
2021/05/29 07:02:05;;;;;;;11.80;8.30;;;17.30;82.10;;;;;;4728848;30;20048;-81
2021/05/29 07:04:31;;;;;;;7.97;7.18;;;17.50;81.70;;;;;;4716832;30;20052;-80
2021/05/29 07:06:58;;;;;;;9.98;5.75;;;17.50;80.30;;;;;;4732223;30;20064;-79
2021/05/29 07:09:25;;;;;;;9.52;7.50;;;17.50;80.60;;;;;;4743308;30;20052;-78
2021/05/29 07:11:51;;;;;;;11.45;8.82;;;17.50;80.20;;;;;;4708768;30;20390;-80
2021/05/29 07:14:18;;;;;;;7.40;6.50;;;17.40;79.20;;;;;;4718434;30;20515;-79
2021/05/29 07:16:47;;;;;;;8.88;5.85;;;17.30;79.00;;;;;;4741821;30;20052;-80
2021/05/29 07:19:13;;;;;;;6.97;6.35;;;17.20;78.90;;;;;;4728461;30;20436;-80
2021/05/29 07:21:40;;;;;;;8.13;6.18;;;17.20;79.30;;;;;;4720880;30;20056;-79
2021/05/29 07:24:07;;;;;;;9.30;6.65;;;17.30;79.10;;;;;;4728226;30;20044;-79
2021/05/29 07:26:33;;;;;;;7.65;5.47;;;17.30;79.10;;;;;;4704388;30;20048;-78
2021/05/29 07:29:00;;;;;;;8.60;7.05;;;17.40;79.10;;;;;;4734933;30;20401;-80
2021/05/29 07:31:27;;;;;;;7.90;5.75;;;17.40;79.10;;;;;;4742533;30;20060;-80
2021/05/29 07:33:55;;;;;;;11.98;5.75;;;17.50;78.70;;;;;;4742884;30;20124;-80
2021/05/29 07:36:22;;;;;;;7.93;5.43;;;17.60;78.90;;;;;;4702969;30;20067;-79
2021/05/29 07:38:49;;;;;;;8.43;5.80;;;17.70;78.80;;;;;;4730635;30;20044;-79
2021/05/29 07:41:15;;;;;;;9.27;5.93;;;17.80;78.50;;;;;;4727823;30;20065;-79
2021/05/29 07:43:42;;;;;;;10.07;7.15;;;18.00;78.30;;;;;;4733784;30;20068;-80
2021/05/29 07:46:10;;;;;;;7.15;5.82;;;18.00;77.40;;;;;;4732313;30;20060;-79
2021/05/29 07:48:39;;;;;;;4.88;4.38;;;18.00;77.50;;;;;;4728620;30;20056;-79
2021/05/29 07:51:06;;;;;;;7.75;5.07;;;18.00;77.60;;;;;;4730587;30;20055;-79
2021/05/29 07:53:35;;;;;;;7.88;4.53;;;18.10;78.20;;;;;;4742492;30;20129;-79
2021/05/29 07:56:05;;;;;;;12.10;6.55;;;18.20;77.50;;;;;;4741871;30;20083;-78
2021/05/29 07:58:31;;;;;;;8.80;5.35;;;18.40;77.00;;;;;;4741432;30;20048;-78
2021/05/29 08:00:58;;;;;;;6.43;5.13;;;18.50;76.60;;;;;;4728880;30;20044;-78
2021/05/29 08:03:27;;;;;;;8.05;6.45;;;18.50;76.20;;;;;;4742760;30;20595;-79
2021/05/29 08:05:55;;;;;;;8.25;6.22;;;18.60;76.00;;;;;;4726583;30;20064;-78
2021/05/29 08:08:23;;;;;;;8.25;5.03;;;18.80;75.80;;;;;;4745376;30;20052;-78
2021/05/29 08:10:53;;;;;;;7.10;5.50;;;18.90;75.80;;;;;;4747798;30;20044;-77
2021/05/29 08:13:20;;;;;;;4.22;3.30;;;18.90;75.60;;;;;;4745383;30;20056;-77
2021/05/29 08:15:47;;;;;;;6.82;4.18;;;18.90;75.60;;;;;;4745083;30;20040;-78
2021/05/29 08:18:17;;;;;;;5.95;4.38;;;18.80;75.10;;;;;;4733471;30;20405;-78
2021/05/29 08:20:46;;;;;;;7.00;5.43;;;18.90;75.10;;;;;;4729895;30;20055;-76
2021/05/29 08:23:12;;;;;;;6.47;5.35;;;18.80;74.20;;;;;;4743981;30;20139;-76
2021/05/29 08:25:39;;;;;;;8.40;5.88;;;18.60;74.20;;;;;;4741015;30;21141;-76
2021/05/29 08:28:06;;;;;;;5.22;4.03;;;18.40;75.10;;;;;;4743289;30;20051;-78
2021/05/29 08:30:33;;;;;;;7.75;4.80;;;18.30;75.80;;;;;;4731076;30;20505;-77
2021/05/29 08:33:00;;;;;;;5.25;3.55;;;18.20;75.80;;;;;;4747332;30;20052;-78
2021/05/29 08:35:27;;;;;;;8.45;4.90;;;18.30;76.10;;;;;;4717003;30;20068;-79
2021/05/29 08:37:53;;;;;;;4.78;4.30;;;18.60;76.00;;;;;;4715681;30;20044;-79
2021/05/29 08:40:21;;;;;;;8.48;5.68;;;18.90;75.30;;;;;;4748165;30;20059;-78
2021/05/29 08:42:48;;;;;;;7.28;5.47;;;19.30;74.00;;;;;;4717094;30;20045;-78
2021/05/29 08:45:16;;;;;;;7.18;4.40;;;19.50;72.60;;;;;;4729210;30;20055;-79
2021/05/29 08:47:46;;;;;;;10.05;6.70;;;19.50;72.70;;;;;;4722107;30;20578;-79
2021/05/29 08:50:13;;;;;;;7.10;5.85;;;19.40;73.10;;;;;;4732104;30;20048;-80
2021/05/29 08:52:40;;;;;;;6.18;4.15;;;19.30;73.60;;;;;;4732710;30;20932;-79
2021/05/29 08:55:13;;;;;;;5.78;3.53;;;19.30;73.70;;;;;;4733284;30;20051;-78
2021/05/29 08:57:39;;;;;;;;;;;19.30;73.80;;;;;;4745700;30;20048;-79
2021/05/29 09:00:09;;;;;;;7.28;3.83;;;19.40;74.00;;;;;;4745178;30;19945;-79
2021/05/29 09:02:55;;;;;;;6.70;4.53;;;19.50;73.90;;;;;;4719597;30;20052;-79
2021/05/29 09:05:38;;;;;;;5.45;4.07;;;19.70;73.20;;;;;;4730513;30;20052;-79
2021/05/29 09:08:10;;;;;;;3.42;3.05;;;19.80;72.80;;;;;;4744064;30;20059;-79
2021/05/29 09:10:41;;;;;;;6.70;4.10;;;19.80;73.00;;;;;;4743748;30;20501;-79
2021/05/29 09:13:09;;;;;;;7.65;4.57;;;19.90;72.80;;;;;;4735600;30;20060;-79
2021/05/29 09:15:46;;;;;;;6.40;4.55;;;19.90;72.40;;;;;;4715416;30;20059;-79
2021/05/29 09:18:31;;;;;;;5.45;3.60;;;20.00;72.00;;;;;;4722936;30;20051;-79
2021/05/29 09:21:34;;;;;;;8.25;4.72;;;20.00;71.80;;;;;;4745570;30;20455;-80
2021/05/29 09:24:17;;;;;;;6.80;3.78;;;20.00;71.60;;;;;;4743767;30;20044;-80
2021/05/29 09:26:48;;;;;;;4.80;3.95;;;19.90;71.70;;;;;;4728807;30;20412;-79
2021/05/29 09:29:30;;;;;;;4.45;3.63;;;19.80;71.90;;;;;;4745825;30;20040;-79
2021/05/29 09:32:02;;;;;;;8.02;3.65;;;19.80;72.10;;;;;;4746077;30;20044;-78
2021/05/29 09:34:47;;;;;;;7.35;5.65;;;19.70;72.40;;;;;;4728000;30;20389;-78
2021/05/29 09:37:28;;;;;;;6.28;4.55;;;19.80;72.00;;;;;;4743039;30;20047;-78
2021/05/29 09:40:00;;;;;;;6.18;4.80;;;19.70;71.70;;;;;;4728017;30;20047;-77
2021/05/29 09:42:33;;;;;;;8.65;5.18;;;19.70;72.00;;;;;;4729956;30;20067;-80
2021/05/29 09:45:18;;;;;;;;;;;19.70;72.20;;;;;;4715010;30;20071;-79
2021/05/29 09:48:18;;;;;;;5.72;3.60;;;19.80;71.80;;;;;;4718121;30;20290;-79
2021/05/29 09:51:05;;;;;;;10.18;6.80;;;20.10;71.30;;;;;;4745915;30;20517;-80
2021/05/29 09:53:46;;;;;;;18.63;9.73;;;20.30;70.30;;;;;;4745327;30;20059;-80
2021/05/29 09:56:26;;;;;;;11.77;7.63;;;20.20;71.00;;;;;;4729268;30;20071;-79
2021/05/29 09:58:57;;;;;;;8.15;5.75;;;20.10;69.90;;;;;;4745320;30;20056;-80
2021/05/29 10:01:50;;;;;;;6.00;4.43;;;20.10;69.80;;;;;;4744945;30;20048;-79
2021/05/29 10:04:38;;;;;;;9.13;4.78;;;20.20;70.10;;;;;;4742811;30;20067;-79
2021/05/29 10:07:06;;;;;;;5.80;5.00;;;20.50;70.00;;;;;;4720320;30;20508;-79
2021/05/29 10:09:34;;;;;;;5.57;4.82;;;20.60;68.50;;;;;;4743947;30;20045;-79
2021/05/29 10:12:03;;;;;;;6.80;4.72;;;20.60;68.20;;;;;;4746304;30;21500;-79
2021/05/29 10:14:31;;;;;;;5.63;4.80;;;20.60;67.80;;;;;;4730078;30;20040;-79
2021/05/29 10:17:05;;;;;;;6.80;4.10;;;20.60;67.60;;;;;;4745278;30;20056;-80
2021/05/29 10:19:32;;;;;;;4.53;3.15;;;20.60;67.20;;;;;;4744237;30;20051;-80
2021/05/29 10:22:19;;;;;;;5.30;4.25;;;20.50;67.40;;;;;;4729932;30;20040;-79
2021/05/29 10:24:49;;;;;;;6.70;4.78;;;20.60;66.80;;;;;;4729597;30;20052;-80
2021/05/29 10:27:23;;;;;;;6.03;4.82;;;20.70;66.60;;;;;;4729436;30;20052;-80
2021/05/29 10:29:54;;;;;;;5.30;4.80;;;20.80;66.20;;;;;;4729396;30;20044;-79
2021/05/29 10:32:21;;;;;;;5.72;2.70;;;20.70;65.80;;;;;;4730018;30;20040;-80
2021/05/29 10:35:00;;;;;;;5.03;3.05;;;20.80;66.50;;;;;;4736401;30;20072;-80
2021/05/29 10:37:41;;;;;;;6.50;3.38;;;21.10;66.40;;;;;;4732699;30;20639;-79
2021/05/29 10:40:21;;;;;;;6.13;3.40;;;21.10;65.50;;;;;;4744496;30;20040;-79
2021/05/29 10:43:15;;;;;;;7.70;5.15;;;21.20;65.10;;;;;;4723076;30;20052;-80
2021/05/29 10:45:51;;;;;;;5.18;3.90;;;21.30;65.50;;;;;;4741378;30;20071;-80
2021/05/29 10:48:19;;;;;;;5.18;3.28;;;21.60;65.20;;;;;;4716340;30;20040;-82
2021/05/29 10:53:33;;;;;;;5.30;3.42;;;22.20;62.90;;;;;;4737171;30;20060;-81
2021/05/29 10:56:15;;;;;;;5.78;4.00;;;22.30;62.30;;;;;;4733793;30;20059;-82
2021/05/29 10:58:54;;;;;;;10.05;3.72;;;22.30;61.80;;;;;;4730562;30;20055;-81
2021/05/29 11:01:23;;;;;;;5.97;2.30;;;22.20;62.10;;;;;;4723232;30;20048;-81
2021/05/29 11:04:11;;;;;;;5.50;3.83;;;22.60;62.80;;;;;;4730387;30;20493;-81
2021/05/29 11:06:41;;;;;;;4.00;3.00;;;22.90;60.00;;;;;;4720775;30;20464;-81
2021/05/29 11:09:09;;;;;;;5.72;2.85;;;22.70;60.40;;;;;;4730182;30;20939;-81
2021/05/29 11:11:36;;;;;;;5.13;2.70;;;22.90;60.00;;;;;;4731016;30;20044;-81
2021/05/29 11:14:09;;;;;;;3.13;1.95;;;23.00;59.50;;;;;;4734978;30;20062;-81
2021/05/29 11:16:54;;;;;;;4.03;2.45;;;23.50;60.30;;;;;;4741431;30;20063;-81
2021/05/29 11:19:22;;;;;;;5.75;2.65;;;24.30;58.60;;;;;;4720977;30;20052;-81
2021/05/29 11:22:36;;;;;;;6.68;2.60;;;24.80;56.60;;;;;;4730098;30;20052;-82
2021/05/29 11:25:03;;;;;;;3.88;2.15;;;24.90;54.30;;;;;;4667204;30;20046;-81
2021/05/29 11:27:33;;;;;;;5.93;2.72;;;24.50;54.80;;;;;;4676364;30;20057;-82
2021/05/29 11:30:09;;;;;;;3.70;1.95;;;24.60;54.90;;;;;;4711189;30;20044;-81
2021/05/29 11:35:41;;;;;;;3.53;1.70;;;25.50;54.20;;;;;;4742620;30;20413;-82
2021/05/29 11:38:20;;;;;;;4.13;2.22;;;26.20;51.90;;;;;;4721142;30;20052;-83
2021/05/29 11:40:58;;;;;;;2.83;1.60;;;26.60;49.80;;;;;;4745850;30;20055;-82
2021/05/29 11:43:49;;;;;;;4.10;1.95;;;26.90;50.00;;;;;;4731675;30;20059;-82
2021/05/29 11:46:22;;;;;;;3.65;1.63;;;27.50;48.10;;;;;;4728927;30;20052;-82
2021/05/29 11:48:54;;;;;;;4.20;2.33;;;27.30;46.40;;;;;;4707640;30;20416;-82
2021/05/29 11:51:21;;;;;;;;;;;26.80;46.10;;;;;;4718584;30;20048;-81
2021/05/29 11:53:56;;;;;;;3.70;2.05;;;26.50;46.10;;;;;;4723160;30;19926;-82
2021/05/29 11:56:30;;;;;;;4.40;1.75;;;26.40;46.90;;;;;;4743240;30;20056;-82
2021/05/29 11:58:56;;;;;;;3.05;1.27;;;26.80;47.60;;;;;;4734996;30;20064;-82
2021/05/29 12:01:30;;;;;;;3.58;1.73;;;27.30;46.30;;;;;;4709507;30;20055;-83
2021/05/29 12:04:04;;;;;;;3.83;1.65;;;27.50;46.20;;;;;;4731354;30;20401;-82
2021/05/29 12:06:46;;;;;;;3.03;2.00;;;27.80;44.70;;;;;;4735241;30;20077;-82
2021/05/29 12:09:29;;;;;;;3.50;2.17;;;27.50;44.50;;;;;;4746788;30;20055;-82
2021/05/29 12:12:03;;;;;;;2.95;1.70;;;26.90;45.60;;;;;;4723642;30;20044;-82
2021/05/29 12:14:37;;;;;;;3.80;1.92;;;26.30;45.70;;;;;;4714934;30;20048;-82
2021/05/29 12:17:05;;;;;;;3.80;1.35;;;26.30;45.80;;;;;;4729208;30;20492;-83
2021/05/29 12:19:38;;;;;;;3.25;1.30;;;26.70;45.10;;;;;;4729489;30;20040;-84
2021/05/29 12:22:15;;;;;;;4.95;2.72;;;27.40;45.30;;;;;;4707240;30;20045;-83
2021/05/29 12:24:45;;;;;;;2.00;1.23;;;27.80;43.10;;;;;;4744628;30;20063;-83
2021/05/29 12:27:16;;;;;;;2.65;1.50;;;27.80;43.60;;;;;;4728936;30;20861;-82
2021/05/29 12:29:43;;;;;;;2.85;1.83;;;28.10;43.40;;;;;;4734193;30;20466;-82
2021/05/29 12:32:27;;;;;;;3.47;1.98;;;27.80;42.40;;;;;;4744110;30;20063;-82
2021/05/29 12:34:53;;;;;;;2.20;1.40;;;27.60;43.00;;;;;;4743810;30;20523;-83
2021/05/29 12:37:31;;;;;;;2.60;1.45;;;27.90;42.90;;;;;;4705507;30;20386;-83
2021/05/29 12:40:02;;;;;;;3.50;1.20;;;28.80;42.80;;;;;;4719371;30;20044;-83
2021/05/29 12:42:42;;;;;;;6.28;2.50;;;29.20;41.60;;;;;;4720123;30;20051;-83
2021/05/29 12:45:28;;;;;;;2.40;1.40;;;29.00;41.20;;;;;;4729495;30;20052;-83
2021/05/29 12:48:05;;;;;;;2.67;1.42;;;28.10;41.60;;;;;;4722166;30;20060;-83
2021/05/29 12:50:38;;;;;;;3.38;1.65;;;27.20;42.70;;;;;;4720037;30;20060;-83
2021/05/29 12:53:13;;;;;;;3.38;1.75;;;27.20;44.00;;;;;;4728998;30;20051;-82
2021/05/29 12:55:40;;;;;;;3.13;1.30;;;28.00;42.20;;;;;;4721128;30;20417;-83
2021/05/29 12:58:19;;;;;;;3.92;2.10;;;28.90;41.50;;;;;;4723139;30;20056;-83
2021/05/29 13:09:26;;;;;;;6.80;1.50;;;26.70;44.10;;;;;;4761849;30;20186;-80
2021/05/29 13:11:53;;;;;;;3.35;2.00;;;27.40;43.80;;;;;;4751966;30;20527;-80
2021/05/29 13:14:31;;;;;;;3.63;1.70;;;28.50;42.10;;;;;;4746274;30;20048;-80
2021/05/29 13:17:00;;;;;;;8.65;5.38;;;29.40;39.70;;;;;;4737045;30;20056;-79
2021/05/29 13:19:29;;;;;;;31.50;4.75;;;30.00;39.80;;;;;;4729860;30;20079;-80
2021/05/29 13:21:59;;;;;;;8.43;1.38;;;30.80;38.50;;;;;;4715138;30;20052;-80
2021/05/29 13:24:59;;;;;;;2.85;1.63;;;31.10;37.60;;;;;;4745564;30;20040;-81
2021/05/29 13:27:25;;;;;;;13.88;2.50;;;31.40;37.20;;;;;;4702452;30;20087;-79